createdAt,value
2023-03-14T00:01:15.491Z,100.00
2023-03-14T00:03:42.510Z,100.00
2023-03-14T00:06:10.084Z,100.00
2023-03-14T00:08:37.592Z,100.00
2023-03-14T00:11:15.930Z,100.00
2023-03-14T00:13:42.464Z,100.00
2023-03-14T00:16:12.104Z,100.00
2023-03-14T00:18:39.513Z,100.00
2023-03-14T00:21:08.081Z,100.00
2023-03-14T00:23:36.650Z,100.00
2023-03-14T00:26:06.077Z,100.00
2023-03-14T00:28:32.982Z,100.00
2023-03-14T00:30:59.535Z,100.00
2023-03-14T00:33:26.018Z,100.00
2023-03-14T00:36:01.185Z,100.00
2023-03-14T00:38:30.807Z,100.00
2023-03-14T00:40:58.172Z,100.00
2023-03-14T00:43:25.193Z,100.00
2023-03-14T00:45:53.111Z,100.00
2023-03-14T00:48:20.664Z,100.00
2023-03-14T00:50:47.801Z,100.00
2023-03-14T00:53:15.718Z,100.00
2023-03-14T00:55:43.670Z,100.00
2023-03-14T00:58:11.704Z,100.00
2023-03-14T01:00:38.845Z,100.00
2023-03-14T01:03:06.315Z,100.00
2023-03-14T01:05:33.165Z,100.00
2023-03-14T01:07:59.711Z,100.00
2023-03-14T01:10:27.817Z,100.00
2023-03-14T01:12:54.420Z,100.00
2023-03-14T01:15:21.323Z,100.00
2023-03-14T01:17:47.907Z,100.00
2023-03-14T01:20:15.607Z,100.00
2023-03-14T01:22:43.227Z,100.00
2023-03-14T01:25:13.290Z,100.00
2023-03-14T01:27:39.825Z,100.00
2023-03-14T01:30:07.419Z,100.00
2023-03-14T01:32:33.986Z,100.00
2023-03-14T01:35:00.781Z,100.00
2023-03-14T01:37:27.463Z,100.00
2023-03-14T01:39:54.068Z,100.00
2023-03-14T01:42:20.763Z,100.00
2023-03-14T01:44:53.234Z,100.00
2023-03-14T01:47:19.928Z,100.00
2023-03-14T01:49:50.150Z,100.00
2023-03-14T01:52:22.839Z,100.00
2023-03-14T01:54:59.835Z,100.00
2023-03-14T01:57:33.125Z,100.00
2023-03-14T02:00:15.311Z,100.00
2023-03-14T02:02:56.427Z,100.00
2023-03-14T02:05:29.434Z,100.00
2023-03-14T02:08:03.096Z,100.00
2023-03-14T02:10:39.522Z,100.00
2023-03-14T02:13:07.662Z,100.00
2023-03-14T02:15:46.074Z,100.00
2023-03-14T02:18:32.897Z,100.00
2023-03-14T02:21:45.874Z,100.00
2023-03-14T02:24:28.275Z,100.00
2023-03-14T02:27:03.879Z,100.00
2023-03-14T02:29:33.473Z,100.00
2023-03-14T02:32:03.382Z,100.00
2023-03-14T02:34:31.108Z,100.00
2023-03-14T02:36:57.834Z,100.00
2023-03-14T02:39:32.931Z,100.00
2023-03-14T02:41:59.447Z,100.00
2023-03-14T02:44:26.093Z,100.00
2023-03-14T02:46:52.754Z,100.00
2023-03-14T02:49:19.428Z,100.00
2023-03-14T02:51:47.004Z,100.00
2023-03-14T02:54:16.320Z,100.00
2023-03-14T02:56:43.055Z,100.00
2023-03-14T02:59:12.620Z,100.00
2023-03-14T03:01:46.230Z,100.00
2023-03-14T03:04:12.730Z,100.00
2023-03-14T03:06:39.233Z,100.00
2023-03-14T03:09:05.807Z,100.00
2023-03-14T03:11:32.298Z,100.00
2023-03-14T03:13:58.901Z,100.00
2023-03-14T03:16:28.133Z,100.00
2023-03-14T03:18:54.659Z,100.00
2023-03-14T03:21:21.206Z,100.00
2023-03-14T03:23:47.678Z,100.00
2023-03-14T03:26:14.132Z,100.00
2023-03-14T03:28:40.596Z,100.00
2023-03-14T03:31:10.469Z,100.00
2023-03-14T03:33:38.546Z,100.00
2023-03-14T03:36:05.623Z,100.00
2023-03-14T03:38:36.266Z,100.00
2023-03-14T03:41:06.873Z,100.00
2023-03-14T03:43:33.566Z,100.00
2023-03-14T03:46:06.536Z,100.00
2023-03-14T03:48:33.585Z,100.00
2023-03-14T03:51:03.404Z,100.00
2023-03-14T03:53:33.504Z,100.00
2023-03-14T03:56:04.254Z,100.00
2023-03-14T03:58:30.810Z,100.00
2023-03-14T04:00:57.344Z,100.00
2023-03-14T04:03:24.381Z,100.00
2023-03-14T04:06:05.930Z,100.00
2023-03-14T04:08:34.383Z,100.00
2023-03-14T04:11:02.732Z,100.00
2023-03-14T04:13:48.202Z,100.00
2023-03-14T04:16:21.521Z,100.00
2023-03-14T04:18:48.596Z,100.00
2023-03-14T04:21:16.204Z,100.00
2023-03-14T04:23:49.044Z,100.00
2023-03-14T04:26:17.121Z,100.00
2023-03-14T04:28:44.600Z,100.00
2023-03-14T04:31:13.951Z,100.00
2023-03-14T04:33:41.131Z,100.00
2023-03-14T04:36:09.306Z,100.00
2023-03-14T04:38:36.478Z,100.00
2023-03-14T04:41:04.178Z,100.00
2023-03-14T04:43:32.869Z,100.00
2023-03-14T04:46:04.527Z,100.00
2023-03-14T04:48:31.117Z,100.00
2023-03-14T04:50:59.053Z,100.00
2023-03-14T04:53:27.114Z,100.00
2023-03-14T04:55:56.614Z,100.00
2023-03-14T04:58:25.798Z,100.00
2023-03-14T05:00:53.976Z,100.00
2023-03-14T05:03:42.980Z,100.00
2023-03-14T05:06:28.186Z,100.00
2023-03-14T05:09:12.809Z,100.00
2023-03-14T05:12:09.523Z,100.00
2023-03-14T05:14:46.806Z,100.00
2023-03-14T05:17:14.102Z,100.00
2023-03-14T05:19:54.579Z,100.00
2023-03-14T05:22:32.449Z,100.00
2023-03-14T05:25:09.179Z,100.00
2023-03-14T05:28:07.959Z,100.00
2023-03-14T05:30:51.571Z,100.00
2023-03-14T05:33:29.371Z,100.00
2023-03-14T05:36:09.881Z,100.00
2023-03-14T05:38:55.033Z,100.00
2023-03-14T05:41:27.417Z,100.00
2023-03-14T05:44:14.295Z,100.00
2023-03-14T05:46:59.247Z,100.00
2023-03-14T05:49:45.558Z,100.00
2023-03-14T05:52:14.810Z,100.00
2023-03-14T05:54:56.079Z,100.00
2023-03-14T05:57:37.685Z,100.00
2023-03-14T06:00:21.765Z,100.00
2023-03-14T06:03:08.347Z,100.00
2023-03-14T06:05:40.515Z,100.00
2023-03-14T06:08:07.113Z,100.00
2023-03-14T06:10:33.697Z,100.00
2023-03-14T06:13:00.205Z,100.00
2023-03-14T06:15:26.869Z,100.00
2023-03-14T06:17:56.690Z,100.00
2023-03-14T06:20:23.657Z,100.00
2023-03-14T06:22:50.240Z,100.00
2023-03-14T06:25:17.185Z,100.00
2023-03-14T06:27:46.682Z,100.00
2023-03-14T06:30:13.961Z,100.00
2023-03-14T06:32:40.603Z,100.00
2023-03-14T06:35:10.657Z,100.00
2023-03-14T06:37:40.890Z,100.00
2023-03-14T06:40:08.745Z,100.00
2023-03-14T06:42:48.647Z,100.00
2023-03-14T06:45:17.051Z,100.00
2023-03-14T06:47:44.033Z,100.00
2023-03-14T06:50:11.685Z,100.00
2023-03-14T06:52:39.354Z,100.00
2023-03-14T06:55:06.392Z,100.00
2023-03-14T06:57:33.214Z,100.00
2023-03-14T07:00:00.237Z,100.00
2023-03-14T07:02:39.850Z,100.00
2023-03-14T07:05:16.133Z,100.00
2023-03-14T07:07:42.761Z,100.00
2023-03-14T07:10:09.904Z,100.00
2023-03-14T07:12:36.777Z,100.00
2023-03-14T07:17:55.944Z,100.00
2023-03-14T07:20:23.729Z,100.00
2023-03-14T07:22:51.136Z,100.00
2023-03-14T07:25:22.467Z,100.00
2023-03-14T07:27:49.231Z,100.00
2023-03-14T07:30:16.337Z,100.00
2023-03-14T07:32:43.160Z,100.00
2023-03-14T07:35:10.475Z,100.00
2023-03-14T07:37:39.626Z,100.00
2023-03-14T07:40:07.016Z,100.00
2023-03-14T07:42:35.316Z,100.00
2023-03-14T07:45:15.834Z,100.00
2023-03-14T07:47:42.395Z,100.00
2023-03-14T07:50:09.673Z,100.00
2023-03-14T07:52:36.168Z,100.00
2023-03-14T07:55:02.658Z,100.00
2023-03-14T07:57:29.160Z,100.00
2023-03-14T07:59:55.620Z,100.00
2023-03-14T08:02:22.136Z,100.00
2023-03-14T08:04:48.867Z,100.00
2023-03-14T08:07:15.496Z,100.00
2023-03-14T08:09:41.981Z,100.00
2023-03-14T08:12:08.904Z,100.00
2023-03-14T08:14:35.325Z,100.00
2023-03-14T08:17:01.803Z,100.00
2023-03-14T08:19:28.384Z,100.00
2023-03-14T08:21:54.878Z,100.00
2023-03-14T08:24:21.300Z,100.00
2023-03-14T08:26:47.797Z,100.00
2023-03-14T08:29:14.311Z,100.00
2023-03-14T08:31:40.855Z,100.00
2023-03-14T08:34:07.750Z,100.00
2023-03-14T08:36:34.718Z,100.00
2023-03-14T08:39:01.381Z,100.00
2023-03-14T08:41:27.966Z,100.00
2023-03-14T08:43:54.444Z,100.00
2023-03-14T08:46:21.016Z,100.00
2023-03-14T08:48:48.104Z,100.00
2023-03-14T08:51:15.105Z,100.00
2023-03-14T08:53:42.439Z,100.00
2023-03-14T08:56:09.445Z,100.00
2023-03-14T08:58:36.086Z,100.00
2023-03-14T09:01:02.647Z,100.00
2023-03-14T09:03:29.103Z,100.00
2023-03-14T09:05:55.573Z,100.00
2023-03-14T09:08:22.052Z,100.00
2023-03-14T09:10:48.555Z,100.00
2023-03-14T09:13:15.021Z,100.00
2023-03-14T09:15:41.475Z,100.00
2023-03-14T09:18:07.948Z,100.00
2023-03-14T09:20:34.453Z,100.00
2023-03-14T09:23:00.881Z,100.00
2023-03-14T09:25:27.364Z,100.00
2023-03-14T09:27:53.818Z,100.00
2023-03-14T09:30:20.295Z,100.00
2023-03-14T09:32:46.825Z,100.00
2023-03-14T09:35:13.313Z,100.00
2023-03-14T09:37:39.781Z,100.00
2023-03-14T09:40:08.607Z,100.00
2023-03-14T09:42:38.321Z,100.00
2023-03-14T09:45:07.780Z,100.00
2023-03-14T09:47:35.871Z,100.00
2023-03-14T09:50:04.010Z,100.00
2023-03-14T09:52:33.275Z,100.00
2023-03-14T09:55:04.605Z,100.00
2023-03-14T09:57:34.948Z,100.00
2023-03-14T10:00:11.941Z,100.00
2023-03-14T10:02:38.423Z,100.00
2023-03-14T10:05:15.826Z,100.00
2023-03-14T10:07:42.317Z,100.00
2023-03-14T10:10:17.136Z,100.00
2023-03-14T10:12:47.508Z,100.00
2023-03-14T10:15:23.335Z,100.00
2023-03-14T10:17:51.454Z,100.00
2023-03-14T10:20:35.004Z,100.00
2023-03-14T10:23:07.867Z,100.00
2023-03-14T10:25:37.179Z,100.00
2023-03-14T10:28:05.536Z,100.00
2023-03-14T10:30:40.039Z,100.00
2023-03-14T10:33:12.098Z,100.00
2023-03-14T10:35:38.747Z,100.00
2023-03-14T10:38:05.526Z,100.00
2023-03-14T10:40:34.961Z,100.00
2023-03-14T10:43:05.870Z,100.00
2023-03-14T10:45:33.873Z,100.00
2023-03-14T10:48:17.063Z,100.00
2023-03-14T10:50:56.804Z,100.00
2023-03-14T10:53:25.996Z,100.00
2023-03-14T10:55:53.897Z,100.00
2023-03-14T10:58:28.222Z,100.00
2023-03-14T11:01:24.118Z,100.00
2023-03-14T11:03:58.742Z,100.00
2023-03-14T11:06:40.286Z,100.00
2023-03-14T11:09:21.726Z,100.00
2023-03-14T11:11:48.971Z,100.00
2023-03-14T11:14:21.483Z,100.00
2023-03-14T11:17:11.075Z,100.00
2023-03-14T11:19:57.132Z,100.00
2023-03-14T11:22:48.664Z,100.00
2023-03-14T11:26:02.499Z,100.00
2023-03-14T11:28:39.493Z,100.00
2023-03-14T11:31:15.026Z,100.00
2023-03-14T11:33:57.231Z,100.00
2023-03-14T11:36:44.936Z,100.00
2023-03-14T11:39:19.706Z,100.00
2023-03-14T11:41:49.907Z,100.00
2023-03-14T11:44:33.639Z,100.00
2023-03-14T11:47:18.479Z,100.00
2023-03-14T11:49:51.610Z,100.00
2023-03-14T11:52:24.042Z,100.00
2023-03-14T11:55:23.942Z,100.00
2023-03-14T11:57:52.557Z,100.00
2023-03-14T12:00:22.121Z,100.00
2023-03-14T12:03:02.435Z,100.00
2023-03-14T12:05:37.722Z,100.00
2023-03-14T12:08:10.145Z,100.00
2023-03-14T12:10:50.526Z,100.00
2023-03-14T12:13:18.478Z,100.00
2023-03-14T12:16:07.594Z,100.00
2023-03-14T12:18:37.241Z,100.00
2023-03-14T12:21:06.424Z,100.00
2023-03-14T12:23:53.167Z,100.00
2023-03-14T12:26:25.946Z,100.00
2023-03-14T12:29:12.278Z,100.00
2023-03-14T12:31:47.591Z,100.00
2023-03-14T12:34:14.077Z,100.00
2023-03-14T12:36:52.724Z,100.00
2023-03-14T12:39:38.082Z,100.00
2023-03-14T12:42:13.885Z,100.00
2023-03-14T12:44:41.467Z,100.00
2023-03-14T12:47:20.207Z,100.00
2023-03-14T12:49:53.271Z,100.00
2023-03-14T12:52:51.948Z,100.00
2023-03-14T12:55:40.313Z,99.34
2023-03-14T12:58:45.383Z,98.41
2023-03-14T13:01:20.404Z,100.00
2023-03-14T13:03:48.757Z,100.00
2023-03-14T13:06:46.938Z,100.00
2023-03-14T13:09:33.341Z,95.99
2023-03-14T13:12:09.598Z,100.00
2023-03-14T13:14:41.650Z,96.39
2023-03-14T13:17:34.585Z,100.00
2023-03-14T13:20:06.028Z,98.85
2023-03-14T13:22:35.028Z,98.12
2023-03-14T13:25:05.664Z,99.35
2023-03-14T13:27:34.928Z,98.46
2023-03-14T13:30:40.607Z,100.00
2023-03-14T13:33:07.388Z,97.99
2023-03-14T13:35:47.006Z,100.00
2023-03-14T13:38:24.899Z,96.62
2023-03-14T13:40:54.917Z,96.02
2023-03-14T13:43:37.065Z,100.00
2023-03-14T13:46:23.989Z,100.00
2023-03-14T13:49:01.012Z,100.00
2023-03-14T13:51:28.186Z,98.31
2023-03-14T13:53:56.358Z,93.93
2023-03-14T13:56:26.082Z,92.10
2023-03-14T13:58:52.739Z,92.29
2023-03-14T14:01:25.447Z,98.91
2023-03-14T14:03:54.516Z,93.61
2023-03-14T14:06:25.790Z,97.62
2023-03-14T14:08:52.509Z,100.00
2023-03-14T14:11:48.447Z,98.71
2023-03-14T14:14:35.604Z,85.69
2023-03-14T14:17:06.129Z,90.58
2023-03-14T14:19:34.715Z,89.93
2023-03-14T14:22:02.933Z,90.86
2023-03-14T14:24:32.357Z,89.68
2023-03-14T14:27:25.653Z,94.48
2023-03-14T14:30:05.085Z,92.55
2023-03-14T14:32:40.179Z,92.18
2023-03-14T14:35:34.059Z,100.00
2023-03-14T14:38:03.990Z,90.08
2023-03-14T14:40:37.203Z,91.55
2023-03-14T14:43:09.988Z,91.34
2023-03-14T14:45:37.365Z,90.53
2023-03-14T14:48:12.648Z,95.26
2023-03-14T14:51:02.897Z,98.71
2023-03-14T14:53:42.630Z,99.28
2023-03-14T14:56:21.566Z,98.81
2023-03-14T14:58:51.416Z,97.06
2023-03-14T15:01:33.208Z,100.00
2023-03-14T15:04:00.350Z,97.94
2023-03-14T15:06:38.339Z,100.00
2023-03-14T15:09:07.282Z,100.00
2023-03-14T15:11:33.942Z,100.00
2023-03-14T15:14:00.390Z,100.00
2023-03-14T15:16:31.680Z,100.00
2023-03-14T15:19:01.920Z,100.00
2023-03-14T15:21:29.911Z,100.00
2023-03-14T15:23:56.395Z,100.00
2023-03-14T15:26:25.713Z,100.00
2023-03-14T15:28:52.187Z,100.00
2023-03-14T15:31:20.180Z,100.00
2023-03-14T15:33:46.810Z,100.00
2023-03-14T15:36:29.310Z,100.00
2023-03-14T15:38:56.567Z,100.00
2023-03-14T15:41:23.956Z,100.00
2023-03-14T15:43:50.941Z,100.00
2023-03-14T15:46:17.841Z,100.00
2023-03-14T15:48:45.716Z,100.00
2023-03-14T15:51:12.463Z,100.00
2023-03-14T15:53:39.167Z,100.00
2023-03-14T15:56:07.611Z,100.00
2023-03-14T15:58:34.596Z,100.00
2023-03-14T16:01:02.742Z,100.00
2023-03-14T16:03:30.090Z,100.00
2023-03-14T16:05:56.568Z,100.00
2023-03-14T16:08:24.908Z,100.00
2023-03-14T16:10:51.381Z,100.00
2023-03-14T16:13:17.883Z,100.00
2023-03-14T16:15:53.805Z,100.00
2023-03-14T16:18:22.184Z,100.00
2023-03-14T16:20:56.439Z,100.00
2023-03-14T16:23:23.399Z,100.00
2023-03-14T16:25:50.377Z,100.00
2023-03-14T16:28:17.185Z,100.00
2023-03-14T16:30:43.639Z,100.00
2023-03-14T16:36:02.214Z,100.00
2023-03-14T16:38:31.732Z,100.00
2023-03-14T16:41:09.902Z,100.00
2023-03-14T16:43:36.434Z,100.00
2023-03-14T16:46:04.389Z,100.00
2023-03-14T16:48:31.067Z,100.00
2023-03-14T16:50:57.851Z,100.00
2023-03-14T16:53:25.063Z,100.00
2023-03-14T16:55:51.679Z,100.00
2023-03-14T16:58:18.223Z,100.00
2023-03-14T17:00:45.566Z,100.00
2023-03-14T17:03:12.200Z,100.00
2023-03-14T17:05:45.339Z,100.00
2023-03-14T17:08:11.844Z,100.00
2023-03-14T17:10:39.812Z,100.00
2023-03-14T17:13:06.462Z,100.00
2023-03-14T17:15:33.022Z,100.00
2023-03-14T17:17:59.517Z,100.00
2023-03-14T17:20:26.048Z,100.00
2023-03-14T17:22:52.580Z,100.00
2023-03-14T17:25:19.061Z,100.00
2023-03-14T17:27:46.306Z,100.00
2023-03-14T17:30:13.510Z,100.00
2023-03-14T17:32:40.333Z,100.00
2023-03-14T17:35:07.056Z,100.00
2023-03-14T17:37:33.551Z,100.00
2023-03-14T17:40:00.046Z,100.00
2023-03-14T17:42:26.747Z,100.00
2023-03-14T17:44:53.225Z,100.00
2023-03-14T17:47:19.751Z,100.00
2023-03-14T17:49:46.186Z,100.00
2023-03-14T17:52:12.942Z,100.00
2023-03-14T17:54:39.817Z,100.00
2023-03-14T17:57:06.467Z,100.00
2023-03-14T17:59:32.919Z,100.00
2023-03-14T18:01:59.455Z,100.00
2023-03-14T18:04:26.106Z,100.00
2023-03-14T18:06:52.659Z,100.00
2023-03-14T18:09:19.171Z,100.00
2023-03-14T18:11:46.248Z,100.00
2023-03-14T18:14:13.482Z,100.00
2023-03-14T18:16:39.943Z,100.00
2023-03-14T18:19:06.418Z,100.00
2023-03-14T18:21:32.910Z,100.00
2023-03-14T18:23:59.374Z,100.00
2023-03-14T18:26:25.822Z,100.00
2023-03-14T18:28:52.287Z,100.00
2023-03-14T18:31:20.108Z,100.00
2023-03-14T18:33:46.662Z,100.00
2023-03-14T18:36:13.242Z,100.00
2023-03-14T18:38:40.069Z,100.00
2023-03-14T18:41:07.557Z,100.00
2023-03-14T18:43:34.960Z,100.00
2023-03-14T18:46:01.973Z,100.00
2023-03-14T18:48:29.725Z,100.00
2023-03-14T18:50:58.097Z,100.00
2023-03-14T18:53:24.670Z,100.00
2023-03-14T18:55:54.576Z,100.00
2023-03-14T18:58:21.109Z,100.00
2023-03-14T19:00:47.606Z,100.00
2023-03-14T19:03:14.090Z,100.00
2023-03-14T19:05:43.785Z,100.00
2023-03-14T19:08:10.290Z,100.00
2023-03-14T19:10:36.730Z,100.00
2023-03-14T19:13:03.220Z,100.00
2023-03-14T19:15:29.767Z,100.00
2023-03-14T19:17:56.241Z,100.00
2023-03-14T19:20:22.687Z,100.00
2023-03-14T19:22:49.156Z,100.00
2023-03-14T19:25:15.606Z,100.00
2023-03-14T19:27:42.086Z,100.00
2023-03-14T19:30:09.047Z,100.00
2023-03-14T19:32:35.569Z,100.00
2023-03-14T19:35:02.125Z,100.00
2023-03-14T19:37:28.679Z,100.00
2023-03-14T19:39:55.103Z,100.00
2023-03-14T19:42:21.560Z,100.00
2023-03-14T19:44:48.011Z,100.00
2023-03-14T19:47:14.495Z,100.00
2023-03-14T19:49:41.001Z,100.00
2023-03-14T19:52:07.462Z,100.00
2023-03-14T19:54:33.902Z,100.00
2023-03-14T19:57:00.406Z,100.00
2023-03-14T19:59:27.049Z,100.00
2023-03-14T20:01:53.489Z,100.00
2023-03-14T20:04:20.039Z,100.00
2023-03-14T20:06:46.592Z,100.00
2023-03-14T20:09:13.046Z,100.00
2023-03-14T20:11:39.575Z,100.00
2023-03-14T20:14:10.226Z,100.00
2023-03-14T20:16:37.808Z,100.00
2023-03-14T20:19:09.219Z,100.00
2023-03-14T20:21:36.020Z,100.00
2023-03-14T20:24:04.179Z,100.00
2023-03-14T20:26:31.406Z,100.00
2023-03-14T20:28:57.914Z,100.00
2023-03-14T20:31:24.425Z,100.00
2023-03-14T20:33:51.621Z,100.00
2023-03-14T20:36:18.272Z,100.00
2023-03-14T20:38:44.727Z,100.00
2023-03-14T20:41:11.216Z,100.00
2023-03-14T20:43:37.762Z,100.00
2023-03-14T20:46:04.993Z,100.00
2023-03-14T20:48:32.202Z,100.00
2023-03-14T20:50:59.062Z,100.00
2023-03-14T20:53:25.703Z,100.00
2023-03-14T20:55:55.756Z,100.00
2023-03-14T20:58:22.302Z,100.00
2023-03-14T21:00:50.495Z,100.00
2023-03-14T21:03:17.906Z,100.00
2023-03-14T21:05:46.838Z,100.00
2023-03-14T21:08:18.228Z,100.00
2023-03-14T21:10:48.590Z,100.00
2023-03-14T21:13:15.254Z,100.00
2023-03-14T21:15:41.780Z,100.00
2023-03-14T21:18:08.694Z,100.00
2023-03-14T21:20:37.355Z,100.00
2023-03-14T21:23:04.541Z,100.00
2023-03-14T21:25:32.296Z,100.00
2023-03-14T21:27:59.018Z,100.00
2023-03-14T21:30:25.866Z,100.00
2023-03-14T21:32:52.388Z,100.00
2023-03-14T21:35:18.939Z,100.00
2023-03-14T21:37:45.489Z,100.00
2023-03-14T21:40:12.878Z,100.00
2023-03-14T21:42:39.554Z,100.00
2023-03-14T21:45:09.884Z,100.00
2023-03-14T21:47:36.363Z,100.00
2023-03-14T21:50:02.895Z,100.00
2023-03-14T21:52:29.410Z,100.00
2023-03-14T21:54:55.859Z,100.00
2023-03-14T21:57:22.540Z,100.00
2023-03-14T21:59:48.998Z,100.00
2023-03-14T22:02:19.082Z,100.00
2023-03-14T22:04:45.721Z,100.00
2023-03-14T22:07:16.721Z,100.00
2023-03-14T22:09:45.693Z,100.00
2023-03-14T22:12:13.278Z,100.00
2023-03-14T22:14:39.775Z,100.00
2023-03-14T22:17:06.355Z,100.00
2023-03-14T22:19:32.883Z,100.00
2023-03-14T22:21:59.415Z,100.00
2023-03-14T22:24:26.097Z,100.00
2023-03-14T22:26:53.703Z,100.00
2023-03-14T22:29:21.471Z,100.00
2023-03-14T22:31:48.217Z,100.00
2023-03-14T22:34:15.050Z,100.00
2023-03-14T22:36:41.975Z,100.00
2023-03-14T22:39:08.871Z,100.00
2023-03-14T22:41:35.861Z,100.00
2023-03-14T22:44:02.317Z,100.00
2023-03-14T22:46:28.758Z,100.00
2023-03-14T22:48:55.272Z,100.00
2023-03-14T22:51:21.743Z,100.00
2023-03-14T22:53:48.990Z,100.00
2023-03-14T22:56:15.446Z,100.00
2023-03-14T22:58:41.931Z,100.00
2023-03-14T23:01:08.412Z,100.00
2023-03-14T23:03:34.910Z,100.00
2023-03-14T23:06:01.417Z,100.00
2023-03-14T23:08:27.906Z,100.00
2023-03-14T23:11:02.142Z,100.00
2023-03-14T23:13:29.633Z,100.00
2023-03-14T23:15:56.105Z,100.00
2023-03-14T23:18:23.180Z,100.00
2023-03-14T23:20:49.648Z,100.00
2023-03-14T23:23:16.090Z,100.00
2023-03-14T23:25:52.887Z,100.00
2023-03-14T23:28:20.286Z,100.00
2023-03-14T23:30:46.773Z,100.00
2023-03-14T23:33:13.325Z,100.00
2023-03-14T23:35:39.802Z,100.00
2023-03-14T23:38:06.264Z,100.00
2023-03-14T23:40:32.744Z,100.00
2023-03-14T23:42:59.178Z,100.00
2023-03-14T23:45:25.646Z,100.00
2023-03-14T23:47:52.058Z,100.00
2023-03-14T23:50:18.779Z,100.00
2023-03-14T23:52:45.227Z,100.00
2023-03-14T23:55:11.723Z,100.00
2023-03-14T23:57:38.200Z,100.00
